createdAt,value
2022-08-27T00:00:51.824Z,11.17
2022-08-27T00:03:20.756Z,12.90
2022-08-27T00:05:49.596Z,10.90
2022-08-27T00:08:18.489Z,13.90
2022-08-27T00:10:50.382Z,13.70
2022-08-27T00:13:20.517Z,9.40
2022-08-27T00:15:49.691Z,15.00
2022-08-27T00:18:22.428Z,11.67
2022-08-27T00:20:52.246Z,11.80
2022-08-27T00:23:21.232Z,10.43
2022-08-27T00:25:50.710Z,12.97
2022-08-27T00:28:21.409Z,13.87
2022-08-27T00:30:50.518Z,16.23
2022-08-27T00:33:19.384Z,12.83
2022-08-27T00:35:48.914Z,9.50
2022-08-27T00:38:18.628Z,10.10
2022-08-27T00:40:47.768Z,20.93
2022-08-27T00:43:24.203Z,11.60
2022-08-27T00:45:55.334Z,13.83
2022-08-27T00:48:33.360Z,12.60
2022-08-27T00:51:02.628Z,11.53
2022-08-27T00:53:33.353Z,12.33
2022-08-27T00:56:08.477Z,11.37
2022-08-27T00:58:42.361Z,10.77
2022-08-27T01:01:15.718Z,14.00
2022-08-27T01:03:47.328Z,15.77
2022-08-27T01:06:17.299Z,11.03
2022-08-27T01:08:47.932Z,14.00
2022-08-27T01:11:16.777Z,10.60
2022-08-27T01:13:59.735Z,10.23
2022-08-27T01:16:34.846Z,9.93
2022-08-27T01:19:05.587Z,14.00
2022-08-27T01:21:37.433Z,15.10
2022-08-27T01:24:16.254Z,12.30
2022-08-27T01:26:46.389Z,15.20
2022-08-27T01:29:15.241Z,13.60
2022-08-27T01:31:44.390Z,13.57
2022-08-27T01:34:13.250Z,13.73
2022-08-27T01:36:42.015Z,12.03
2022-08-27T01:39:10.769Z,14.03
2022-08-27T01:41:41.665Z,13.70
2022-08-27T01:44:11.829Z,10.67
2022-08-27T01:46:40.591Z,10.20
2022-08-27T01:49:11.237Z,11.20
2022-08-27T01:51:40.264Z,15.17
2022-08-27T01:54:09.022Z,12.47
2022-08-27T01:56:38.098Z,9.87
2022-08-27T01:59:07.116Z,12.43
2022-08-27T02:01:37.256Z,10.60
2022-08-27T02:04:06.110Z,11.03
2022-08-27T02:06:34.877Z,11.97
2022-08-27T02:09:03.966Z,14.93
2022-08-27T02:11:32.658Z,15.23
2022-08-27T02:14:01.440Z,10.70
2022-08-27T02:16:52.034Z,12.40
2022-08-27T02:19:22.160Z,12.73
2022-08-27T02:21:51.053Z,18.90
2022-08-27T02:24:19.771Z,10.97
2022-08-27T02:26:48.460Z,11.13
2022-08-27T02:29:17.169Z,8.97
2022-08-27T02:31:47.620Z,10.77
2022-08-27T02:34:16.674Z,10.30
2022-08-27T02:36:45.488Z,11.40
2022-08-27T02:39:14.322Z,11.70
2022-08-27T02:41:43.077Z,11.23
2022-08-27T02:44:12.284Z,11.40
2022-08-27T02:46:42.714Z,11.27
2022-08-27T02:49:13.329Z,11.37
2022-08-27T02:51:42.109Z,11.50
2022-08-27T02:54:10.906Z,10.00
2022-08-27T02:56:40.624Z,13.40
2022-08-27T02:59:09.388Z,13.33
2022-08-27T03:01:38.241Z,18.03
2022-08-27T03:04:07.404Z,9.90
2022-08-27T03:06:37.521Z,12.50
2022-08-27T03:09:06.460Z,10.37
2022-08-27T03:11:35.185Z,8.73
2022-08-27T03:14:03.979Z,15.17
2022-08-27T03:16:35.295Z,13.53
2022-08-27T03:19:03.589Z,11.83
2022-08-27T03:21:32.631Z,11.20
2022-08-27T03:24:09.549Z,9.40
2022-08-27T03:26:41.087Z,11.00
2022-08-27T03:29:09.845Z,16.97
2022-08-27T03:31:38.956Z,12.27
2022-08-27T03:34:09.435Z,10.40
2022-08-27T03:36:38.202Z,13.03
2022-08-27T03:39:08.277Z,12.60
2022-08-27T03:41:45.602Z,12.47
2022-08-27T03:44:24.595Z,10.47
2022-08-27T03:46:53.573Z,14.83
2022-08-27T03:49:23.088Z,10.13
2022-08-27T03:51:53.973Z,15.87
2022-08-27T03:54:24.950Z,19.70
2022-08-27T03:56:53.820Z,16.40
2022-08-27T03:59:22.665Z,16.87
2022-08-27T04:01:51.784Z,23.87
2022-08-27T04:04:21.115Z,24.80
2022-08-27T04:06:49.783Z,22.93
2022-08-27T04:09:19.317Z,24.27
2022-08-27T04:11:49.376Z,20.93
2022-08-27T04:14:20.752Z,19.30
2022-08-27T04:16:56.979Z,20.23
2022-08-27T04:19:28.413Z,19.63
2022-08-27T04:22:02.352Z,17.73
2022-08-27T04:24:32.771Z,21.07
2022-08-27T04:27:04.187Z,22.47
2022-08-27T04:29:33.247Z,18.20
2022-08-27T04:32:02.752Z,20.30
2022-08-27T04:34:32.118Z,18.97
2022-08-27T04:37:01.493Z,23.93
2022-08-27T04:39:31.223Z,29.40
2022-08-27T04:42:03.000Z,28.20
2022-08-27T04:44:34.175Z,27.87
2022-08-27T04:47:04.666Z,30.30
2022-08-27T04:49:34.089Z,29.20
2022-08-27T04:52:03.137Z,31.47
2022-08-27T04:54:32.161Z,25.30
2022-08-27T04:57:04.480Z,32.60
2022-08-27T04:59:34.809Z,38.10
2022-08-27T05:02:04.789Z,34.40
2022-08-27T05:04:35.962Z,29.53
2022-08-27T05:07:04.941Z,36.17
2022-08-27T05:09:34.403Z,35.27
2022-08-27T05:12:04.997Z,34.20
2022-08-27T05:14:33.715Z,39.60
2022-08-27T05:17:03.356Z,34.67
2022-08-27T05:19:32.868Z,34.53
2022-08-27T05:22:01.607Z,33.93
2022-08-27T05:24:32.300Z,38.90
2022-08-27T05:27:01.375Z,41.17
2022-08-27T05:29:31.608Z,37.30
2022-08-27T05:32:00.352Z,37.47
2022-08-27T05:34:29.991Z,33.30
2022-08-27T05:36:59.179Z,37.87
2022-08-27T05:39:28.048Z,43.80
2022-08-27T05:41:57.817Z,41.87
2022-08-27T05:44:40.968Z,40.40
2022-08-27T05:47:12.265Z,36.67
2022-08-27T05:49:41.021Z,42.67
2022-08-27T05:52:10.883Z,35.73
2022-08-27T05:54:40.642Z,36.90
2022-08-27T05:57:09.420Z,41.77
2022-08-27T05:59:55.993Z,40.73
2022-08-27T06:02:26.477Z,40.47
2022-08-27T06:04:55.398Z,41.55
2022-08-27T06:07:24.321Z,36.10
2022-08-27T06:09:53.211Z,34.53
2022-08-27T06:12:27.086Z,42.37
2022-08-27T06:14:57.625Z,24.57
2022-08-27T06:17:28.100Z,36.70
2022-08-27T06:19:56.930Z,34.20
2022-08-27T06:22:25.717Z,26.23
2022-08-27T06:24:54.516Z,30.77
2022-08-27T06:27:23.302Z,31.17
2022-08-27T06:29:52.359Z,34.03
2022-08-27T06:32:21.107Z,29.90
2022-08-27T06:34:51.513Z,40.10
2022-08-27T06:37:20.344Z,40.17
2022-08-27T06:39:49.079Z,34.00
2022-08-27T06:42:18.124Z,37.27
2022-08-27T06:44:47.009Z,41.03
2022-08-27T06:47:15.757Z,36.40
2022-08-27T06:49:46.292Z,34.43
2022-08-27T06:52:16.740Z,35.80
2022-08-27T06:54:45.970Z,33.30
2022-08-27T06:57:14.682Z,34.50
2022-08-27T06:59:44.076Z,36.60
2022-08-27T07:02:12.908Z,30.20
2022-08-27T07:04:41.774Z,36.57
2022-08-27T07:07:12.121Z,37.80
2022-08-27T07:09:42.324Z,38.70
2022-08-27T07:12:11.121Z,36.83
2022-08-27T07:14:39.851Z,34.90
2022-08-27T07:17:10.756Z,35.00
2022-08-27T07:19:41.093Z,39.43
2022-08-27T07:22:10.820Z,34.80
2022-08-27T07:24:40.138Z,38.13
2022-08-27T07:27:10.830Z,34.40
2022-08-27T07:29:39.800Z,38.87
2022-08-27T07:32:08.605Z,34.40
2022-08-27T07:34:37.384Z,35.87
2022-08-27T07:37:06.480Z,37.13
2022-08-27T07:39:35.294Z,35.60
2022-08-27T07:42:21.443Z,37.17
2022-08-27T07:44:51.497Z,41.40
2022-08-27T07:47:20.473Z,33.57
2022-08-27T07:49:49.201Z,47.10
2022-08-27T07:52:18.546Z,45.33
2022-08-27T07:54:47.425Z,37.50
2022-08-27T07:57:16.408Z,36.10
2022-08-27T07:59:45.378Z,32.70
2022-08-27T08:02:15.572Z,39.70
2022-08-27T08:04:44.409Z,34.13
2022-08-27T08:07:13.710Z,36.30
2022-08-27T08:09:42.471Z,33.20
2022-08-27T08:12:11.225Z,36.87
2022-08-27T08:14:40.420Z,35.17
2022-08-27T08:17:10.396Z,36.97
2022-08-27T08:19:41.668Z,32.97
2022-08-27T08:22:10.458Z,36.17
2022-08-27T08:24:39.227Z,40.53
2022-08-27T08:27:08.118Z,35.47
2022-08-27T08:29:37.770Z,38.23
2022-08-27T08:32:08.312Z,36.07
2022-08-27T08:34:37.283Z,38.67
2022-08-27T08:37:07.888Z,45.40
2022-08-27T08:39:37.802Z,45.47
2022-08-27T08:42:08.817Z,34.10
2022-08-27T08:44:39.755Z,34.97
2022-08-27T08:47:11.959Z,39.67
2022-08-27T08:49:48.319Z,49.63
2022-08-27T08:52:31.622Z,35.87
2022-08-27T08:55:09.571Z,36.10
2022-08-27T08:57:42.244Z,39.70
2022-08-27T09:00:16.660Z,31.63
2022-08-27T09:02:54.417Z,37.50
2022-08-27T09:05:27.784Z,37.23
2022-08-27T09:08:31.030Z,28.57
2022-08-27T09:10:58.967Z,25.40
2022-08-27T09:13:30.758Z,28.57
2022-08-27T09:16:03.568Z,21.07
2022-08-27T09:18:35.152Z,26.13
2022-08-27T09:21:10.256Z,15.03
2022-08-27T09:23:46.660Z,22.43
2022-08-27T09:26:20.776Z,15.03
2022-08-27T09:29:07.513Z,11.97
2022-08-27T09:31:40.598Z,15.30
2022-08-27T09:34:09.580Z,16.73
2022-08-27T09:36:50.059Z,14.47
2022-08-27T09:39:20.175Z,16.67
2022-08-27T09:41:49.753Z,19.17
2022-08-27T09:44:20.317Z,14.10
2022-08-27T09:46:54.491Z,13.53
2022-08-27T09:49:24.141Z,13.40
2022-08-27T09:51:53.167Z,9.57
2022-08-27T09:54:38.334Z,10.33
2022-08-27T09:57:08.052Z,13.90
2022-08-27T09:59:38.611Z,17.53
2022-08-27T10:02:15.813Z,14.13
2022-08-27T10:04:50.939Z,12.47
2022-08-27T10:07:37.299Z,11.67
2022-08-27T10:10:12.970Z,12.77
2022-08-27T10:12:52.128Z,15.20
2022-08-27T10:15:21.103Z,17.70
2022-08-27T10:18:01.485Z,17.57
2022-08-27T10:20:36.519Z,17.50
2022-08-27T10:23:13.492Z,17.67
2022-08-27T10:25:50.286Z,14.97
2022-08-27T10:28:33.505Z,16.97
2022-08-27T10:31:11.450Z,16.87
2022-08-27T10:33:46.537Z,18.37
2022-08-27T10:36:26.234Z,15.60
2022-08-27T10:38:59.868Z,15.40
2022-08-27T10:41:35.097Z,14.80
2022-08-27T10:44:20.530Z,23.07
2022-08-27T10:47:06.255Z,14.80
2022-08-27T10:49:43.319Z,13.57
2022-08-27T10:52:18.583Z,16.73
2022-08-27T10:54:51.867Z,12.63
2022-08-27T10:57:40.210Z,13.37
2022-08-27T11:00:19.740Z,15.73
2022-08-27T11:02:53.936Z,16.90
2022-08-27T11:05:25.715Z,14.43
2022-08-27T11:07:57.125Z,13.07
2022-08-27T11:10:30.271Z,14.07
2022-08-27T11:13:05.433Z,11.57
2022-08-27T11:15:36.532Z,12.07
2022-08-27T11:18:07.415Z,11.70
2022-08-27T11:20:37.517Z,13.03
2022-08-27T11:23:09.635Z,15.47
2022-08-27T11:25:50.865Z,15.30
2022-08-27T11:28:29.693Z,15.50
2022-08-27T11:31:02.908Z,13.33
2022-08-27T11:33:37.754Z,15.00
2022-08-27T11:36:41.542Z,14.23
2022-08-27T11:39:21.427Z,19.43
2022-08-27T11:41:58.148Z,22.30
2022-08-27T11:44:28.485Z,19.70
2022-08-27T11:47:07.678Z,19.60
2022-08-27T11:49:42.386Z,20.40
2022-08-27T11:52:11.716Z,20.80
2022-08-27T11:54:50.239Z,18.70
2022-08-27T11:57:29.227Z,19.53
2022-08-27T12:00:00.976Z,21.00
2022-08-27T12:02:31.185Z,20.30
2022-08-27T12:05:08.951Z,17.37
2022-08-27T12:07:39.961Z,22.77
2022-08-27T12:10:30.816Z,19.93
2022-08-27T12:13:13.519Z,19.40
2022-08-27T12:15:52.433Z,21.50
2022-08-27T12:18:49.687Z,18.70
2022-08-27T12:21:26.559Z,24.33
2022-08-27T12:24:10.944Z,23.13
2022-08-27T12:26:42.699Z,21.10
2022-08-27T12:29:27.920Z,18.33
2022-08-27T12:32:05.283Z,24.50
2022-08-27T12:34:44.116Z,22.10
2022-08-27T12:37:14.458Z,22.80
2022-08-27T12:39:49.355Z,19.63
2022-08-27T12:42:20.217Z,22.30
2022-08-27T12:44:55.387Z,19.60
2022-08-27T12:47:25.723Z,17.13
2022-08-27T12:49:58.096Z,19.77
2022-08-27T12:52:44.184Z,16.87
2022-08-27T12:55:23.570Z,15.70
2022-08-27T12:57:58.530Z,16.50
2022-08-27T13:00:28.036Z,8.03
2022-08-27T13:03:10.526Z,5.73
2022-08-27T13:05:41.608Z,5.83
2022-08-27T13:08:20.208Z,4.10
2022-08-27T13:10:49.398Z,5.20
2022-08-27T13:13:22.126Z,5.70
2022-08-27T13:15:55.276Z,5.13
2022-08-27T13:18:29.920Z,5.03
2022-08-27T13:21:04.953Z,5.20
2022-08-27T13:23:35.425Z,7.23
2022-08-27T13:26:07.591Z,5.03
2022-08-27T13:28:38.783Z,4.13
2022-08-27T13:31:10.175Z,4.80
2022-08-27T13:33:41.367Z,4.60
2022-08-27T13:36:10.812Z,3.70
2022-08-27T13:38:45.494Z,3.77
2022-08-27T13:41:29.195Z,3.43
2022-08-27T13:43:59.764Z,9.20
2022-08-27T13:46:31.196Z,4.00
2022-08-27T13:49:02.053Z,4.30
2022-08-27T13:51:32.562Z,4.00
2022-08-27T13:54:13.694Z,4.40
2022-08-27T13:56:57.446Z,4.57
2022-08-27T13:59:28.142Z,5.13
2022-08-27T14:02:01.238Z,4.47
2022-08-27T14:04:38.767Z,4.77
2022-08-27T14:07:10.680Z,5.03
2022-08-27T14:09:46.105Z,4.03
2022-08-27T14:12:28.982Z,4.27
2022-08-27T14:15:15.074Z,5.90
2022-08-27T14:17:46.295Z,4.10
2022-08-27T14:20:17.541Z,4.53
2022-08-27T14:22:47.117Z,3.73
2022-08-27T14:25:16.445Z,7.30
2022-08-27T14:27:54.203Z,5.03
2022-08-27T14:30:29.922Z,3.87
2022-08-27T14:33:00.369Z,5.97
2022-08-27T14:35:32.249Z,4.30
2022-08-27T14:38:13.776Z,4.53
2022-08-27T14:40:43.319Z,4.93
2022-08-27T14:43:12.371Z,5.70
2022-08-27T14:45:41.977Z,4.67
2022-08-27T14:48:18.685Z,5.03
2022-08-27T14:50:54.914Z,6.00
2022-08-27T14:53:24.146Z,6.40
2022-08-27T14:55:53.106Z,7.23
2022-08-27T14:58:22.373Z,11.73
2022-08-27T15:00:52.130Z,8.00
2022-08-27T15:03:20.985Z,8.40
2022-08-27T15:05:49.822Z,9.00
2022-08-27T15:08:20.036Z,7.03
2022-08-27T15:10:51.174Z,11.37
2022-08-27T15:13:19.948Z,9.40
2022-08-27T15:15:48.776Z,12.83
2022-08-27T15:18:21.217Z,8.50
2022-08-27T15:20:50.595Z,8.13
2022-08-27T15:23:20.758Z,7.70
2022-08-27T15:25:49.715Z,9.63
2022-08-27T15:28:18.476Z,10.17
2022-08-27T15:30:47.226Z,8.23
2022-08-27T15:33:16.052Z,9.87
2022-08-27T15:35:44.868Z,11.60
2022-08-27T15:38:13.835Z,9.83
2022-08-27T15:40:44.128Z,16.00
2022-08-27T15:43:13.495Z,11.30
2022-08-27T15:45:42.255Z,12.87
2022-08-27T15:48:12.126Z,11.37
2022-08-27T15:50:41.383Z,13.83
2022-08-27T15:53:10.889Z,11.20
2022-08-27T15:55:41.264Z,10.03
2022-08-27T15:58:11.545Z,9.37
2022-08-27T16:00:41.250Z,9.60
2022-08-27T16:03:12.220Z,13.50
2022-08-27T16:05:43.346Z,9.50
2022-08-27T16:08:12.673Z,8.77
2022-08-27T16:10:41.532Z,9.43
2022-08-27T16:13:11.913Z,10.90
2022-08-27T16:15:41.754Z,11.40
2022-08-27T16:18:11.253Z,11.70
2022-08-27T16:20:42.317Z,11.77
2022-08-27T16:23:11.261Z,12.20
2022-08-27T16:25:40.327Z,12.73
2022-08-27T16:28:09.160Z,14.93
2022-08-27T16:30:39.372Z,12.23
2022-08-27T16:33:09.729Z,11.57
2022-08-27T16:35:38.557Z,13.37
2022-08-27T16:38:07.445Z,11.60
2022-08-27T16:40:40.369Z,10.50
2022-08-27T16:43:14.339Z,21.30
2022-08-27T16:45:44.598Z,19.40
2022-08-27T16:48:27.225Z,18.50
2022-08-27T16:50:56.004Z,19.33
2022-08-27T16:53:24.841Z,17.13
2022-08-27T16:55:53.714Z,19.30
2022-08-27T16:58:24.547Z,18.17
2022-08-27T17:00:56.802Z,15.00
2022-08-27T17:03:26.250Z,18.13
2022-08-27T17:05:55.040Z,15.63
2022-08-27T17:08:27.027Z,21.90
2022-08-27T17:10:57.173Z,18.70
2022-08-27T17:13:28.551Z,22.47
2022-08-27T17:16:01.436Z,20.67
2022-08-27T17:18:30.539Z,25.70
2022-08-27T17:21:02.242Z,24.60
2022-08-27T17:23:34.506Z,26.33
2022-08-27T17:26:05.613Z,35.43
2022-08-27T17:28:35.050Z,31.77
2022-08-27T17:31:05.459Z,32.97
2022-08-27T17:33:38.076Z,28.70
2022-08-27T17:36:09.353Z,30.20
2022-08-27T17:38:38.930Z,28.30
2022-08-27T17:41:13.375Z,31.80
2022-08-27T17:43:43.358Z,32.83
2022-08-27T17:46:13.856Z,29.90
2022-08-27T17:48:43.271Z,30.23
2022-08-27T17:51:14.442Z,22.87
2022-08-27T17:53:47.993Z,27.73
2022-08-27T17:56:18.576Z,31.47
2022-08-27T17:58:47.636Z,37.67
2022-08-27T18:01:18.777Z,26.67
2022-08-27T18:03:49.489Z,29.80
2022-08-27T18:06:19.033Z,28.03
2022-08-27T18:08:48.025Z,27.10
2022-08-27T18:11:16.814Z,30.93
2022-08-27T18:13:48.226Z,33.63
2022-08-27T18:16:18.534Z,25.20
2022-08-27T18:18:47.593Z,29.05
2022-08-27T18:21:20.792Z,29.60
2022-08-27T18:23:54.475Z,42.90
2022-08-27T18:26:25.117Z,27.83
2022-08-27T18:28:53.919Z,31.00
2022-08-27T18:31:28.823Z,26.83
2022-08-27T18:33:58.084Z,31.50
2022-08-27T18:36:27.850Z,28.50
2022-08-27T18:38:56.743Z,32.33
2022-08-27T18:41:25.920Z,33.07
2022-08-27T18:43:54.692Z,31.77
2022-08-27T18:46:25.425Z,34.60
2022-08-27T18:48:54.427Z,37.90
2022-08-27T18:51:23.475Z,38.53
2022-08-27T18:53:52.224Z,37.20
2022-08-27T18:56:21.577Z,39.30
2022-08-27T18:58:50.349Z,32.97
2022-08-27T19:01:21.837Z,33.83
2022-08-27T19:03:52.927Z,35.60
2022-08-27T19:06:22.597Z,39.70
2022-08-27T19:08:51.919Z,34.63
2022-08-27T19:11:20.845Z,41.40
2022-08-27T19:13:50.480Z,43.50
2022-08-27T19:16:22.042Z,40.30
2022-08-27T19:18:52.843Z,34.50
2022-08-27T19:21:21.718Z,37.43
2022-08-27T19:23:52.713Z,34.20
2022-08-27T19:26:25.750Z,33.27
2022-08-27T19:28:54.829Z,35.80
2022-08-27T19:31:23.927Z,40.73
2022-08-27T19:33:54.751Z,34.53
2022-08-27T19:36:24.230Z,34.40
2022-08-27T19:38:56.743Z,28.50
2022-08-27T19:41:27.986Z,36.80
2022-08-27T19:43:57.046Z,38.03
2022-08-27T19:46:26.916Z,36.23
2022-08-27T19:48:58.132Z,32.53
2022-08-27T19:51:27.059Z,39.27
2022-08-27T19:53:55.975Z,33.63
2022-08-27T19:56:25.134Z,40.27
2022-08-27T19:58:57.594Z,35.03
2022-08-27T20:01:28.828Z,40.20
2022-08-27T20:03:59.143Z,39.07
2022-08-27T20:06:29.652Z,34.70
2022-08-27T20:08:58.725Z,36.83
2022-08-27T20:11:27.576Z,36.13
2022-08-27T20:13:58.615Z,38.80
2022-08-27T20:16:27.515Z,40.23
2022-08-27T20:18:59.670Z,32.63
2022-08-27T20:21:31.001Z,37.10
2022-08-27T20:23:59.883Z,39.97
2022-08-27T20:26:30.690Z,40.57
2022-08-27T20:28:59.736Z,35.63
2022-08-27T20:31:29.560Z,42.80
2022-08-27T20:33:58.559Z,49.43
2022-08-27T20:36:31.603Z,39.63
2022-08-27T20:39:00.825Z,35.50
2022-08-27T20:41:30.153Z,36.97
2022-08-27T20:43:59.407Z,40.70
2022-08-27T20:46:30.585Z,37.27
2022-08-27T20:48:59.397Z,36.43
2022-08-27T20:51:29.434Z,39.50
2022-08-27T20:54:00.994Z,38.33
2022-08-27T20:56:30.231Z,45.63
2022-08-27T20:59:16.942Z,38.40
2022-08-27T21:01:45.948Z,45.60
2022-08-27T21:04:14.844Z,36.73
2022-08-27T21:06:43.662Z,34.87
2022-08-27T21:09:13.932Z,39.87
2022-08-27T21:11:42.708Z,35.67
2022-08-27T21:14:11.448Z,35.60
2022-08-27T21:16:41.163Z,42.13
2022-08-27T21:19:10.626Z,34.90
2022-08-27T21:21:39.545Z,32.50
2022-08-27T21:24:09.441Z,31.23
2022-08-27T21:26:39.578Z,35.47
2022-08-27T21:29:08.448Z,37.67
2022-08-27T21:31:37.323Z,35.30
2022-08-27T21:34:06.172Z,35.50
2022-08-27T21:36:35.176Z,38.73
2022-08-27T21:39:04.238Z,30.70
2022-08-27T21:41:37.317Z,38.90
2022-08-27T21:44:07.874Z,38.07
2022-08-27T21:46:37.203Z,35.63
2022-08-27T21:49:06.137Z,41.97
2022-08-27T21:51:35.367Z,36.90
2022-08-27T21:54:04.349Z,36.00
2022-08-27T21:56:33.872Z,39.87
2022-08-27T21:59:02.589Z,37.97
2022-08-27T22:01:33.017Z,42.97
2022-08-27T22:04:02.151Z,46.50
2022-08-27T22:06:31.063Z,45.00
2022-08-27T22:08:59.824Z,45.23
2022-08-27T22:11:30.703Z,40.93
2022-08-27T22:13:59.553Z,42.03
2022-08-27T22:16:29.119Z,43.60
2022-08-27T22:18:59.336Z,45.33
2022-08-27T22:21:28.334Z,46.77
2022-08-27T22:23:57.442Z,47.20
2022-08-27T22:26:26.331Z,45.83
2022-08-27T22:28:55.047Z,39.57
2022-08-27T22:31:24.203Z,42.50
2022-08-27T22:33:53.483Z,41.90
2022-08-27T22:36:23.905Z,40.33
2022-08-27T22:38:52.764Z,43.33
2022-08-27T22:41:21.482Z,40.03
2022-08-27T22:43:51.375Z,40.50
2022-08-27T22:46:25.475Z,40.30
2022-08-27T22:48:54.277Z,39.97
2022-08-27T22:51:24.470Z,35.97
2022-08-27T22:53:53.322Z,40.87
2022-08-27T22:56:22.277Z,45.47
2022-08-27T22:58:51.086Z,41.83
2022-08-27T23:01:20.062Z,42.50
2022-08-27T23:03:49.116Z,42.77
2022-08-27T23:06:18.446Z,39.37
2022-08-27T23:08:48.813Z,45.57
2022-08-27T23:11:17.691Z,41.17
2022-08-27T23:13:47.086Z,38.30
2022-08-27T23:16:16.820Z,37.70
2022-08-27T23:18:45.712Z,38.27
2022-08-27T23:21:15.374Z,40.43
2022-08-27T23:23:44.207Z,39.13
2022-08-27T23:26:32.197Z,34.17
2022-08-27T23:29:00.929Z,33.30
2022-08-27T23:31:29.931Z,31.77
2022-08-27T23:33:58.937Z,36.63
2022-08-27T23:36:29.138Z,38.53
2022-08-27T23:38:58.547Z,36.30
2022-08-27T23:41:29.020Z,34.93
2022-08-27T23:43:58.217Z,35.77
2022-08-27T23:46:27.045Z,35.07
2022-08-27T23:48:56.392Z,35.20
2022-08-27T23:51:25.305Z,39.40
2022-08-27T23:53:54.130Z,34.57
2022-08-27T23:56:22.898Z,39.17
2022-08-27T23:59:00.575Z,35.23
